Time;durP1;ratioP1;P1;durP2;ratioP2;P2;SDS_P1;SDS_P2;PMS_P1;PMS_P2;Temp;Humidity;BMP_temperature;BMP_pressure;BME280_temperature;BME280_humidity;BME280_pressure;Samples;Min_cycle;Max_cycle;Signal;HPM_P1;HPM_P2
2022/11/08 00:04:06;;;;;;;85.90;40.28;;;;;;;20.41;61.19;99062.47;4763497;30;20067;-64
2022/11/08 00:16:13;;;;;;;91.97;44.25;;;;;;;20.25;62.27;99084.19;4744847;30;20060;-64
2022/11/08 00:18:55;;;;;;;87.22;42.28;;;;;;;20.21;62.57;99080.38;4752582;30;20195;-63
2022/11/08 00:21:44;;;;;;;90.75;44.38;;;;;;;20.15;62.94;99081.47;4762994;30;20542;-63
2022/11/08 00:24:26;;;;;;;91.00;44.45;;;;;;;20.26;62.27;99079.59;4762585;30;20240;-63
2022/11/08 00:27:27;;;;;;;91.82;45.17;;;;;;;20.21;63.02;99090.47;4762041;30;20044;-64
2022/11/08 00:30:09;;;;;;;96.65;45.63;;;;;;;20.14;63.21;99091.56;4768003;29;20063;-67
2022/11/08 00:32:58;;;;;;;99.85;46.65;;;;;;;20.06;63.87;99094.81;4780446;29;20058;-63
2022/11/08 00:35:40;;;;;;;91.72;45.10;;;;;;;20.09;64.25;99099.69;4779431;30;20059;-64
2022/11/08 00:38:29;;;;;;;94.20;44.83;;;;;;;20.02;64.72;99114.66;4779800;30;20063;-63
2022/11/08 00:41:11;;;;;;;91.57;45.55;;;;;;;19.89;65.21;99111.34;4780014;30;20054;-65
2022/11/08 00:44:00;;;;;;;84.35;43.05;;;;;;;19.62;65.47;99121.50;4780161;30;20061;-65
2022/11/08 00:46:42;;;;;;;88.75;43.22;;;;;;;19.68;66.02;99128.59;4779565;30;20062;-65
2022/11/08 00:49:31;;;;;;;92.60;42.95;;;;;;;19.80;65.74;99128.47;4779080;30;20059;-65
2022/11/08 00:52:13;;;;;;;86.05;41.83;;;;;;;19.91;65.54;99130.13;4779104;29;20073;-64
2022/11/08 00:55:02;;;;;;;90.07;43.28;;;;;;;19.94;65.28;99121.44;4779774;30;20078;-65
2022/11/08 00:57:51;;;;;;;82.00;41.10;;;;;;;19.90;65.86;99117.59;4778250;30;20488;-62
2022/11/08 01:00:40;;;;;;;85.80;42.03;;;;;;;19.90;65.68;99126.59;4759252;30;20059;-67
2022/11/08 01:03:35;;;;;;;85.30;41.13;;;;;;;19.85;65.68;99128.47;4780669;30;20051;-65
2022/11/08 01:06:12;;;;;;;87.28;41.72;;;;;;;19.70;66.24;99132.72;4780365;30;20561;-65
2022/11/08 01:09:08;;;;;;;82.63;38.75;;;;;;;19.67;66.41;99135.97;4780558;29;20164;-65
2022/11/08 01:11:45;;;;;;;73.22;39.90;;;;;;;19.75;65.91;99131.94;4779370;30;20063;-63
2022/11/08 01:14:34;;;;;;;88.82;41.33;;;;;;;19.69;66.07;99133.00;4781628;29;20852;-63
2022/11/08 01:17:23;;;;;;;86.10;43.20;;;;;;;19.64;66.48;99138.41;4782636;30;20044;-64
2022/11/08 01:20:05;;;;;;;83.93;41.50;;;;;;;19.72;65.98;99133.31;4768190;30;20144;-63
2022/11/08 01:22:54;;;;;;;81.68;42.22;;;;;;;19.73;66.30;99145.81;4783639;29;20136;-65
2022/11/08 01:25:41;;;;;;;81.70;41.35;;;;;;;19.64;66.14;99147.41;4782573;29;20062;-63
2022/11/08 01:28:30;;;;;;;87.90;41.50;;;;;;;19.59;66.84;99152.81;4782181;29;20067;-63
2022/11/08 01:31:20;;;;;;;79.90;41.10;;;;;;;19.59;67.09;99144.63;4782824;29;20131;-64
2022/11/08 01:34:09;;;;;;;81.68;40.67;;;;;;;19.63;66.73;99151.19;4764398;30;20056;-65
2022/11/08 01:36:58;;;;;;;79.85;42.15;;;;;;;19.63;67.16;99159.38;4781697;30;20143;-64
2022/11/08 01:39:47;;;;;;;76.40;41.38;;;;;;;19.70;67.18;99159.97;4782373;29;20504;-64
2022/11/08 01:42:36;;;;;;;89.47;41.35;;;;;;;19.85;69.21;99163.88;4783376;30;20132;-65
2022/11/08 01:46:02;;;;;;;79.22;39.97;;;;;;;19.91;68.31;99168.25;4777335;30;20373;-64
2022/11/08 01:49:03;;;;;;;84.35;40.55;;;;;;;19.94;67.37;99173.19;4765463;30;20443;-65
2022/11/08 01:52:14;;;;;;;78.47;40.65;;;;;;;19.96;66.20;99165.56;4768937;29;20479;-64
2022/11/08 01:55:19;;;;;;;81.32;38.17;;;;;;;19.89;66.66;99171.28;4780901;30;20138;-64
2022/11/08 01:58:26;;;;;;;73.38;38.28;;;;;;;19.97;67.08;99172.66;4781606;30;20077;-64
2022/11/08 02:01:08;;;;;;;82.88;41.03;;;;;;;20.05;66.27;99180.34;4781545;30;20059;-64
2022/11/08 02:03:58;;;;;;;84.38;39.10;;;;;;;20.06;66.37;99179.25;4781142;30;20564;-65
2022/11/08 02:06:41;;;;;;;74.68;40.78;;;;;;;20.11;67.44;99183.91;4781095;30;20058;-65
2022/11/08 02:09:31;;;;;;;77.97;40.72;;;;;;;20.13;67.77;99181.72;4782270;30;20078;-63
2022/11/08 02:12:22;;;;;;;75.30;40.58;;;;;;;20.20;67.93;99184.22;4779580;30;20154;-64
2022/11/08 02:15:12;;;;;;;82.75;42.63;;;;;;;20.29;67.16;99190.78;4765970;30;20508;-64
2022/11/08 02:17:54;;;;;;;94.47;45.85;;;;;;;20.39;67.46;99190.84;4778739;30;20051;-65
2022/11/08 02:20:43;;;;;;;85.97;43.83;;;;;;;20.42;66.82;99198.47;4781260;30;20063;-64
2022/11/08 02:23:49;;;;;;;88.95;44.13;;;;;;;20.53;66.10;99197.41;4780677;30;20062;-64
2022/11/08 02:26:40;;;;;;;88.20;46.17;;;;;;;20.54;66.53;99207.25;4745631;30;20068;-66
2022/11/08 02:29:34;;;;;;;97.18;49.75;;;;;;;20.72;65.52;99213.34;4766782;29;20059;-64
2022/11/08 02:32:30;;;;;;;88.70;46.92;;;;;;;20.78;65.84;99206.81;4763795;30;20059;-64
2022/11/08 02:35:10;;;;;;;104.80;49.10;;;;;;;20.82;65.93;99216.09;4763052;30;20055;-64
2022/11/08 02:38:06;;;;;;;93.30;46.50;;;;;;;20.99;64.73;99218.56;4760225;30;20631;-65
2022/11/08 02:40:52;;;;;;;90.75;46.53;;;;;;;21.09;65.58;99223.22;4763261;30;20055;-65
2022/11/08 02:43:41;;;;;;;87.67;42.73;;;;;;;21.00;64.03;99227.56;4735517;30;20059;-67
2022/11/08 02:46:33;;;;;;;74.43;40.35;;;;;;;21.19;63.29;99220.53;4763336;30;20137;-65
2022/11/08 02:49:15;;;;;;;87.28;41.78;;;;;;;21.26;63.06;99225.72;4762434;30;20104;-66
2022/11/08 02:52:04;;;;;;;83.43;40.55;;;;;;;21.40;62.93;99236.91;4763709;30;20052;-64
2022/11/08 02:54:46;;;;;;;79.95;39.88;;;;;;;21.52;63.42;99240.22;4762639;30;20615;-65
2022/11/08 02:57:35;;;;;;;75.43;37.28;;;;;;;21.19;61.19;99238.78;4763355;30;20063;-65
2022/11/08 03:00:17;;;;;;;63.97;33.95;;;;;;;21.72;60.28;99246.78;4763319;30;20087;-66
2022/11/08 03:03:06;;;;;;;68.72;35.38;;;;;;;21.60;61.25;99247.88;4748388;30;20146;-65
2022/11/08 03:05:48;;;;;;;58.67;30.20;;;;;;;22.14;61.63;99256.53;4764220;30;20063;-66
2022/11/08 03:08:37;;;;;;;61.60;30.88;;;;;;;22.26;58.33;99268.84;4764353;30;20063;-66
2022/11/08 03:11:19;;;;;;;52.15;29.55;;;;;;;23.44;59.64;99261.97;4758970;30;20060;-65
2022/11/08 03:14:08;;;;;;;53.35;27.75;;;;;;;23.47;57.12;99277.88;4747575;30;20654;-66
2022/11/08 03:16:50;;;;;;;52.22;26.67;;;;;;;23.74;55.63;99268.34;4763737;30;20043;-65
2022/11/08 03:19:39;;;;;;;52.95;29.08;;;;;;;24.28;55.86;99283.72;4763847;30;20141;-66
2022/11/08 03:22:21;;;;;;;39.33;24.15;;;;;;;24.12;53.79;99287.75;4763808;30;20485;-64
2022/11/08 03:25:10;;;;;;;56.70;27.33;;;;;;;24.47;52.00;99293.97;4763546;30;20117;-66
2022/11/08 03:27:52;;;;;;;46.80;26.08;;;;;;;24.54;53.89;99289.78;4764465;30;20765;-65
2022/11/08 03:30:42;;;;;;;45.90;25.63;;;;;;;25.06;52.54;99283.66;4770052;29;20142;-66
2022/11/08 03:33:24;;;;;;;51.75;25.23;;;;;;;25.32;52.04;99275.91;4773798;30;20063;-66
2022/11/08 03:36:13;;;;;;;46.33;25.63;;;;;;;25.27;49.39;99284.19;4780745;30;20477;-64
2022/11/08 03:38:55;;;;;;;41.17;25.10;;;;;;;25.24;51.45;99293.03;4781612;30;20140;-64
2022/11/08 03:41:44;;;;;;;51.08;26.45;;;;;;;24.69;48.58;99291.53;4781454;29;20059;-66
2022/11/08 03:44:26;;;;;;;45.95;26.73;;;;;;;25.58;48.07;99284.53;4778788;30;20050;-63
2022/11/08 03:47:15;;;;;;;54.75;26.33;;;;;;;25.85;47.31;99283.00;4780842;29;20596;-66
2022/11/08 03:49:57;;;;;;;60.03;29.35;;;;;;;24.45;46.17;99282.47;4781921;29;20146;-65
2022/11/08 03:52:50;;;;;;;53.80;29.27;;;;;;;25.04;46.08;99283.94;4781638;30;20055;-66
2022/11/08 03:55:32;;;;;;;62.30;30.85;;;;;;;25.68;45.78;99286.31;4766893;30;20075;-68
2022/11/08 03:58:21;;;;;;;57.13;32.00;;;;;;;26.33;44.92;99285.44;4765060;30;20528;-66
2022/11/08 04:01:04;;;;;;;66.18;34.17;;;;;;;26.33;44.54;99283.53;4765669;30;20052;-65
2022/11/08 04:03:54;;;;;;;68.47;36.75;;;;;;;26.92;42.42;99282.91;4779545;30;20078;-66
2022/11/08 04:06:36;;;;;;;81.40;43.67;;;;;;;27.80;43.42;99282.56;4779994;30;20066;-65
2022/11/08 04:09:25;;;;;;;89.00;46.17;;;;;;;28.01;44.38;99284.78;4780731;30;20830;-65
2022/11/08 04:15:20;;;;;;;66.90;34.35;;;;;;;27.98;41.65;99286.25;4779675;30;20443;-65
2022/11/08 04:21:23;;;;;;;64.20;35.50;;;;;;;28.73;40.51;99291.94;4777869;30;20047;-65
2022/11/08 04:24:12;;;;;;;64.78;34.50;;;;;;;28.00;42.08;99305.25;4780172;30;20063;-65
2022/11/08 04:27:01;;;;;;;63.67;34.17;;;;;;;27.37;42.83;99305.09;4782433;30;20131;-66
2022/11/08 04:29:44;;;;;;;61.88;33.47;;;;;;;28.42;40.82;99305.78;4781029;29;20161;-65
2022/11/08 04:32:39;;;;;;;55.40;31.95;;;;;;;29.20;41.43;99319.88;4779879;29;20770;-66
2022/11/08 04:35:14;;;;;;;52.60;30.05;;;;;;;29.33;41.99;99312.56;4779873;30;20459;-66
2022/11/08 04:38:04;;;;;;;60.50;36.00;;;;;;;27.32;39.29;99310.72;4779918;30;20442;-67
2022/11/08 04:40:54;;;;;;;68.55;35.08;;;;;;;26.46;42.19;99317.66;4777788;30;20146;-68
2022/11/08 04:43:50;;;;;;;65.25;36.45;;;;;;;26.81;40.55;99314.53;4780627;30;20065;-66
2022/11/08 04:46:27;;;;;;;68.88;35.60;;;;;;;26.73;40.90;99308.66;4761682;30;20058;-65
2022/11/08 04:49:22;;;;;;;73.97;34.67;;;;;;;27.78;40.31;99309.59;4776458;30;20054;-66
2022/11/08 04:52:11;;;;;;;78.78;38.63;;;;;;;26.00;42.53;99309.44;4783104;29;20055;-67
2022/11/08 04:54:53;;;;;;;61.50;33.53;;;;;;;27.29;43.17;99314.09;4780480;30;20090;-65
2022/11/08 04:57:42;;;;;;;61.55;32.03;;;;;;;27.99;40.91;99304.41;4779458;30;20766;-65
2022/11/08 05:00:24;;;;;;;62.22;32.00;;;;;;;28.19;41.88;99308.59;4778073;30;20124;-65
2022/11/08 05:03:13;;;;;;;55.83;30.08;;;;;;;28.16;38.58;99300.13;4776464;30;20056;-65
2022/11/08 05:05:55;;;;;;;79.82;30.85;;;;;;;28.16;42.29;99298.19;4765543;30;20078;-64
2022/11/08 05:08:51;;;;;;;58.85;31.02;;;;;;;28.23;41.88;99297.75;4763507;30;20079;-66
2022/11/08 05:11:29;;;;;;;43.75;24.33;;;;;;;27.32;39.28;99294.16;4775735;29;20274;-68
2022/11/08 05:14:24;;;;;;;47.67;23.92;;;;;;;27.33;41.23;99298.56;4775349;30;20055;-66
2022/11/08 05:16:59;;;;;;;41.45;24.35;;;;;;;27.35;41.92;99290.81;4763896;30;20694;-66
2022/11/08 05:25:57;;;;;;;47.65;23.63;;;;;;;27.91;39.17;99286.69;4774816;29;20071;-67
2022/11/08 05:28:42;;;;;;;42.35;21.05;;;;;;;27.50;38.90;99282.16;4779573;30;20043;-67
2022/11/08 05:31:38;;;;;;;42.65;23.67;;;;;;;26.88;38.73;99281.91;4779506;29;20059;-67
2022/11/08 05:34:27;;;;;;;42.60;22.77;;;;;;;27.29;42.03;99281.03;4778767;30;20116;-66
2022/11/08 05:37:09;;;;;;;45.83;25.08;;;;;;;27.40;38.25;99281.59;4779200;30;20590;-64
2022/11/08 05:40:04;;;;;;;50.92;25.55;;;;;;;27.62;38.05;99272.53;4778314;30;20064;-61
2022/11/08 05:42:39;;;;;;;48.53;24.92;;;;;;;28.10;41.32;99272.66;4779529;30;20055;-62
2022/11/08 05:45:29;;;;;;;48.85;27.63;;;;;;;28.25;41.42;99274.19;4777749;30;20055;-62
2022/11/08 05:48:11;;;;;;;57.53;29.50;;;;;;;28.07;41.23;99278.84;4778940;30;20576;-63
2022/11/08 05:51:07;;;;;;;46.72;26.30;;;;;;;28.11;38.48;99268.00;4771649;30;20067;-63
2022/11/08 05:53:45;;;;;;;52.28;28.30;;;;;;;28.38;38.32;99257.88;4778568;29;20380;-61
2022/11/08 05:56:41;;;;;;;56.28;28.13;;;;;;;28.68;41.12;99267.22;4779336;30;20132;-61
2022/11/08 05:59:16;;;;;;;59.63;29.48;;;;;;;28.47;39.78;99259.53;4751128;29;20465;-60
2022/11/08 06:02:12;;;;;;;69.30;30.10;;;;;;;28.25;37.77;99260.41;4783215;30;20055;-62
2022/11/08 06:04:49;;;;;;;55.70;28.38;;;;;;;28.39;37.12;99256.72;4782382;30;20077;-61
2022/11/08 06:07:38;;;;;;;52.40;26.85;;;;;;;28.31;36.61;99250.03;4777989;30;20071;-62
2022/11/08 06:10:28;;;;;;;51.50;26.70;;;;;;;28.65;36.31;99260.41;4780503;30;20112;-63
2022/11/08 06:13:10;;;;;;;48.85;23.88;;;;;;;29.01;38.38;99259.34;4775794;29;20079;-61
2022/11/08 06:15:59;;;;;;;43.67;24.38;;;;;;;28.70;37.78;99251.97;4781597;30;20067;-61
2022/11/08 06:18:41;;;;;;;41.70;22.15;;;;;;;28.86;38.20;99248.75;4781830;30;20059;-61
2022/11/08 06:21:31;;;;;;;39.70;20.48;;;;;;;28.56;36.55;99248.53;4771299;30;20067;-61
2022/11/08 06:24:16;;;;;;;40.67;21.30;;;;;;;28.88;35.45;99241.75;4782950;29;20051;-61
2022/11/08 06:27:05;;;;;;;41.80;21.67;;;;;;;29.19;36.78;99228.97;4783213;30;20055;-62
2022/11/08 06:29:54;;;;;;;43.90;23.02;;;;;;;29.21;37.28;99233.03;4782304;29;20055;-63
2022/11/08 06:32:49;;;;;;;38.45;20.17;;;;;;;29.05;38.13;99227.16;4781605;30;20493;-61
2022/11/08 06:35:24;;;;;;;53.55;23.25;;;;;;;29.08;36.49;99222.91;4783051;30;20059;-61
2022/11/08 06:38:21;;;;;;;40.42;22.38;;;;;;;29.44;37.14;99219.84;4782321;30;20055;-60
2022/11/08 06:41:00;;;;;;;37.55;20.92;;;;;;;29.31;36.22;99204.25;4780790;30;20081;-62
2022/11/08 06:43:55;;;;;;;38.55;21.17;;;;;;;29.24;36.67;99195.66;4781852;30;20431;-62
2022/11/08 06:46:31;;;;;;;41.50;20.92;;;;;;;29.44;35.81;99194.16;4781279;30;20070;-64
2022/11/08 06:49:26;;;;;;;40.17;22.02;;;;;;;29.64;37.62;99196.22;4780814;30;20488;-62
2022/11/08 06:52:02;;;;;;;38.90;21.27;;;;;;;29.61;35.18;99191.34;4785355;29;20160;-64
2022/11/08 06:54:51;;;;;;;44.28;21.70;;;;;;;29.76;37.62;99173.44;4782648;29;20071;-63
2022/11/08 06:57:35;;;;;;;37.53;20.92;;;;;;;29.80;35.27;99179.94;4782194;30;20062;-63
2022/11/08 07:00:31;;;;;;;35.75;21.73;;;;;;;29.64;36.65;99173.28;4780381;30;20555;-63
2022/11/08 07:03:06;;;;;;;40.83;21.05;;;;;;;29.26;33.55;99157.44;4778428;30;20051;-63
2022/11/08 07:05:55;;;;;;;39.85;19.48;;;;;;;29.27;35.79;99159.88;4780815;30;20120;-63
2022/11/08 07:08:32;;;;;;;40.88;20.08;;;;;;;29.49;35.56;99166.34;4779465;30;20893;-64
2022/11/08 07:11:21;;;;;;;40.47;20.92;;;;;;;29.33;34.20;99160.53;4778776;29;20116;-65
2022/11/08 07:14:03;;;;;;;43.85;21.33;;;;;;;29.47;36.32;99154.78;4780268;30;20702;-63
2022/11/08 07:16:52;;;;;;;31.52;20.27;;;;;;;29.72;35.84;99147.56;4780980;30;20120;-63
2022/11/08 07:19:34;;;;;;;42.95;21.60;;;;;;;29.90;35.36;99139.22;4780909;30;20159;-63
2022/11/08 07:22:23;;;;;;;37.60;21.02;;;;;;;29.88;36.03;99135.97;4781674;30;20128;-63
2022/11/08 07:25:05;;;;;;;36.05;22.00;;;;;;;29.79;37.72;99136.81;4782215;30;20059;-63
2022/11/08 07:27:54;;;;;;;41.38;24.13;;;;;;;29.76;35.11;99134.72;4782100;29;20428;-63
2022/11/08 07:30:42;;;;;;;42.20;23.70;;;;;;;29.79;34.99;99124.91;4780270;29;20063;-63
2022/11/08 07:33:31;;;;;;;45.00;24.40;;;;;;;29.75;35.91;99122.03;4781581;29;20572;-63
2022/11/08 07:36:14;;;;;;;41.50;23.98;;;;;;;29.80;36.80;99121.81;4763809;30;20125;-62
2022/11/08 07:39:03;;;;;;;35.65;21.20;;;;;;;29.41;36.05;99123.75;4764280;30;20167;-63
2022/11/08 07:41:47;;;;;;;42.17;22.27;;;;;;;29.31;35.77;99120.50;4763436;30;20070;-62
2022/11/08 07:44:42;;;;;;;40.17;21.85;;;;;;;29.25;36.17;99123.47;4760794;30;20572;-62
2022/11/08 07:47:17;;;;;;;44.50;24.08;;;;;;;29.28;34.21;99114.50;4781231;30;20067;-64
2022/11/08 07:50:13;;;;;;;40.63;21.90;;;;;;;29.80;36.48;99110.75;4766597;30;20062;-62
2022/11/08 07:52:52;;;;;;;49.22;23.35;;;;;;;29.88;35.80;99111.06;4791380;29;20786;-62
2022/11/08 07:55:48;;;;;;;40.15;23.83;;;;;;;29.55;34.06;99108.91;4795517;29;20085;-62
2022/11/08 07:58:24;;;;;;;47.58;25.85;;;;;;;29.42;35.41;99106.00;4781350;29;20138;-62
2022/11/08 08:01:14;;;;;;;50.70;27.95;;;;;;;29.31;34.60;99096.44;4780599;29;20059;-62
2022/11/08 08:03:56;;;;;;;43.63;25.95;;;;;;;29.42;37.49;99103.22;4781104;30;20087;-62
2022/11/08 08:06:51;;;;;;;45.97;25.90;;;;;;;29.19;35.34;99090.78;4781027;30;20055;-62
2022/11/08 08:09:26;;;;;;;50.80;27.63;;;;;;;29.18;36.67;99089.16;4781056;30;20685;-62
2022/11/08 08:12:16;;;;;;;50.22;27.27;;;;;;;29.27;35.22;99087.16;4778769;30;20059;-62
2022/11/08 08:15:05;;;;;;;50.85;28.35;;;;;;;29.22;35.17;99082.66;4780704;30;20055;-62
2022/11/08 08:17:54;;;;;;;48.35;28.13;;;;;;;29.20;36.43;99075.84;4780691;30;20128;-65
2022/11/08 08:20:44;;;;;;;50.30;29.05;;;;;;;29.59;36.86;99076.66;4780648;30;20480;-62
2022/11/08 08:23:26;;;;;;;49.85;28.15;;;;;;;29.60;36.35;99073.56;4780003;30;20051;-62
2022/11/08 08:26:15;;;;;;;57.03;29.55;;;;;;;29.46;36.73;99071.03;4764924;30;20059;-62
2022/11/08 08:28:57;;;;;;;54.60;29.48;;;;;;;29.59;36.00;99068.38;4779655;30;20051;-63
2022/11/08 08:31:52;;;;;;;54.55;28.13;;;;;;;29.79;37.59;99064.88;4779011;30;20111;-62
2022/11/08 08:34:28;;;;;;;50.67;29.83;;;;;;;29.81;35.16;99057.06;4779947;30;20101;-64
2022/11/08 08:37:23;;;;;;;49.95;29.15;;;;;;;29.92;35.16;99053.91;4776794;30;20704;-63
2022/11/08 08:39:58;;;;;;;69.90;30.48;;;;;;;29.92;34.83;99045.59;4780085;30;20059;-63
2022/11/08 08:42:53;;;;;;;58.85;30.95;;;;;;;30.03;36.08;99052.38;4778230;30;20051;-63
2022/11/08 08:45:29;;;;;;;72.82;34.38;;;;;;;29.89;35.55;99049.06;4776500;29;20150;-63
2022/11/08 08:48:24;;;;;;;76.53;35.00;;;;;;;29.46;37.50;99045.31;4776787;30;20066;-62
2022/11/08 08:50:59;;;;;;;60.47;33.65;;;;;;;29.85;36.81;99038.66;4780248;30;20120;-64
2022/11/08 08:53:49;;;;;;;55.90;32.03;;;;;;;29.98;37.16;99039.56;4777016;30;20055;-62
2022/11/08 08:56:31;;;;;;;66.57;34.25;;;;;;;29.87;35.74;99032.78;4775789;29;20051;-62
2022/11/08 08:59:20;;;;;;;57.85;33.00;;;;;;;29.88;36.48;99030.81;4779172;30;20134;-63
2022/11/08 09:02:22;;;;;;;57.85;33.15;;;;;;;30.06;36.27;99024.03;4779138;30;20116;-63
2022/11/08 09:05:12;;;;;;;59.33;30.67;;;;;;;30.08;35.56;99020.91;4780056;30;20136;-63
2022/11/08 09:07:55;;;;;;;62.88;33.33;;;;;;;29.82;35.12;99014.41;4779267;30;20051;-64
2022/11/08 09:10:50;;;;;;;66.45;31.38;;;;;;;29.89;35.16;99019.44;4779804;30;20061;-63
2022/11/08 09:13:27;;;;;;;66.32;32.42;;;;;;;29.72;35.53;99014.78;4778670;30;20120;-63
2022/11/08 09:16:16;;;;;;;53.60;28.33;;;;;;;29.99;36.90;99009.91;4779350;30;20139;-63
2022/11/08 09:19:05;;;;;;;53.00;29.75;;;;;;;29.87;35.73;99010.66;4779776;30;20062;-64
2022/11/08 09:21:47;;;;;;;47.05;27.83;;;;;;;30.08;35.00;99005.13;4780131;30;20055;-62
2022/11/08 09:24:36;;;;;;;57.08;27.73;;;;;;;29.48;35.33;98998.78;4778921;30;20083;-61
2022/11/08 09:27:18;;;;;;;60.25;28.17;;;;;;;29.70;35.86;98999.66;4778675;30;20392;-63
2022/11/08 09:30:07;;;;;;;61.80;28.98;;;;;;;29.06;35.87;98988.38;4776450;30;20163;-63
2022/11/08 09:32:54;;;;;;;56.35;27.38;;;;;;;29.56;36.78;98997.13;4774578;30;20047;-62
2022/11/08 09:35:45;;;;;;;49.58;26.38;;;;;;;29.57;37.00;98987.69;4767623;30;20416;-63
2022/11/08 09:38:27;;;;;;;42.63;23.00;;;;;;;29.31;33.42;98980.31;4781258;30;20083;-61
2022/11/08 09:41:50;;;;;;;41.58;22.60;;;;;;;29.54;34.38;98985.59;4781041;30;20171;-63
2022/11/08 09:44:44;;;;;;;41.83;20.83;;;;;;;29.65;33.73;98975.75;4779558;30;20524;-62
2022/11/08 09:47:43;;;;;;;39.72;20.98;;;;;;;29.76;33.73;98981.75;4782848;30;20143;-62
2022/11/08 09:50:32;;;;;;;38.40;20.35;;;;;;;29.72;31.70;98973.28;4780582;30;20051;-61
2022/11/08 09:53:33;;;;;;;38.92;20.95;;;;;;;29.65;34.64;98971.03;4781964;30;20075;-62
2022/11/08 09:56:20;;;;;;;37.60;19.75;;;;;;;29.64;34.34;98968.63;4781980;30;20063;-63
2022/11/08 09:59:12;;;;;;;35.35;21.23;;;;;;;29.65;34.00;98965.50;4782939;30;20054;-64
2022/11/08 10:01:54;;;;;;;37.67;20.02;;;;;;;29.61;34.63;98958.22;4781994;30;20047;-63
2022/11/08 10:04:43;;;;;;;48.88;22.88;;;;;;;29.41;33.13;98959.81;4783387;30;20070;-62
2022/11/08 10:07:34;;;;;;;44.17;23.48;;;;;;;29.56;36.36;98958.41;4783739;30;20459;-64
2022/11/08 10:11:27;;;;;;;39.80;22.77;;;;;;;29.39;36.31;98946.31;4782471;30;20446;-62
2022/11/08 10:14:11;;;;;;;38.90;22.40;;;;;;;29.38;36.92;98941.13;4651498;30;20070;-64
2022/11/08 10:17:42;;;;;;;42.70;22.05;;;;;;;29.32;36.63;98940.50;4674618;30;20104;-62
2022/11/08 10:20:48;;;;;;;46.90;22.00;;;;;;;29.27;37.15;98943.44;4781265;29;20377;-63
2022/11/08 10:23:46;;;;;;;41.05;22.42;;;;;;;29.03;36.99;98944.81;4783318;29;20063;-62
2022/11/08 10:26:47;;;;;;;43.35;24.15;;;;;;;29.00;38.67;98934.41;4780590;30;20138;-62
2022/11/08 10:29:36;;;;;;;43.30;22.98;;;;;;;28.96;39.07;98932.66;4782046;30;20139;-62
2022/11/08 10:32:36;;;;;;;44.85;23.27;;;;;;;28.97;38.71;98926.81;4781020;29;20116;-63
2022/11/08 10:35:11;;;;;;;45.83;23.60;;;;;;;28.91;38.36;98925.38;4768471;30;20093;-64
2022/11/08 10:38:10;;;;;;;42.05;22.13;;;;;;;29.03;40.14;98925.47;4782466;30;20059;-62
2022/11/08 10:41:07;;;;;;;47.97;24.13;;;;;;;28.95;40.10;98919.97;4781907;30;20051;-62
2022/11/08 10:44:16;;;;;;;38.80;21.60;;;;;;;28.77;40.44;98913.72;4782517;29;20063;-62
2022/11/08 10:47:05;;;;;;;43.13;22.55;;;;;;;28.67;41.79;98912.94;4763522;30;20066;-63
2022/11/08 10:49:55;;;;;;;45.85;23.95;;;;;;;28.57;39.49;98918.81;4777064;30;20079;-63
2022/11/08 10:52:59;;;;;;;43.08;22.00;;;;;;;28.33;41.01;98915.75;4784222;29;20537;-62
2022/11/08 10:55:50;;;;;;;41.73;22.47;;;;;;;28.06;41.39;98918.50;4777331;30;20136;-62
2022/11/08 10:58:38;;;;;;;37.05;21.02;;;;;;;28.01;42.09;98913.19;4780030;30;20055;-62
2022/11/08 11:01:33;;;;;;;37.90;21.70;;;;;;;27.97;42.29;98911.38;4780777;30;20431;-64
2022/11/08 11:04:27;;;;;;;39.90;21.30;;;;;;;27.86;43.25;98908.94;4782108;30;20453;-61
2022/11/08 11:07:34;;;;;;;44.63;21.70;;;;;;;27.85;44.57;98912.00;4781159;30;20583;-62
2022/11/08 11:10:43;;;;;;;43.22;22.17;;;;;;;27.90;44.43;98909.94;4778607;30;20075;-61
2022/11/08 11:13:38;;;;;;;45.08;23.50;;;;;;;27.82;42.39;98907.13;4780484;30;20162;-63
2022/11/08 11:16:14;;;;;;;43.55;22.73;;;;;;;27.89;41.53;98902.78;4781530;30;20070;-62
2022/11/08 11:19:12;;;;;;;44.42;23.40;;;;;;;27.98;42.88;98897.28;4779806;30;20638;-61
2022/11/08 11:21:54;;;;;;;45.05;23.15;;;;;;;27.92;43.41;98888.34;4780707;30;20756;-64
2022/11/08 11:24:50;;;;;;;48.00;22.23;;;;;;;27.85;43.59;98890.75;4758847;30;20642;-64
2022/11/08 11:27:41;;;;;;;43.13;21.40;;;;;;;27.82;43.03;98899.69;4781072;30;20055;-62
2022/11/08 11:30:46;;;;;;;40.90;21.40;;;;;;;27.80;42.94;98893.69;4779911;30;20074;-63
2022/11/08 11:33:50;;;;;;;42.50;21.77;;;;;;;27.80;43.73;98890.09;4779847;30;20672;-62
2022/11/08 11:36:45;;;;;;;;;;;;;;;27.70;42.48;98896.75;4781143;30;20066;-64
2022/11/08 11:39:30;;;;;;;41.88;22.30;;;;;;;27.50;43.94;98889.91;4778344;30;19925;-61
2022/11/08 11:42:19;;;;;;;42.67;21.42;;;;;;;27.41;45.71;98892.66;4779858;30;20051;-62
2022/11/08 11:45:34;;;;;;;40.13;22.17;;;;;;;27.28;43.89;98893.59;4781208;30;20158;-64
2022/11/08 11:48:27;;;;;;;42.85;21.75;;;;;;;27.15;44.93;98885.13;4780185;30;20120;-63
2022/11/08 11:51:16;;;;;;;39.63;21.80;;;;;;;27.08;45.99;98889.47;4780618;30;20081;-62
2022/11/08 11:54:09;;;;;;;43.97;23.75;;;;;;;27.09;43.30;98888.31;4770095;30;20300;-63
2022/11/08 11:57:14;;;;;;;40.95;22.00;;;;;;;27.14;45.38;98886.22;4781132;30;20838;-62
2022/11/08 12:00:07;;;;;;;41.47;22.00;;;;;;;26.99;45.86;98892.19;4781320;30;20083;-63
2022/11/08 12:03:30;;;;;;;44.25;21.33;;;;;;;26.99;45.15;98885.88;4765740;30;20059;-61
2022/11/08 12:06:22;;;;;;;45.83;21.58;;;;;;;26.85;46.47;98894.25;4780433;29;20099;-64
2022/11/08 12:09:38;;;;;;;37.97;21.52;;;;;;;26.89;46.97;98892.47;4780541;30;20151;-62
2022/11/08 12:13:09;;;;;;;44.05;21.90;;;;;;;26.93;46.80;98897.03;4765004;30;20066;-63
2022/11/08 12:16:16;;;;;;;43.00;22.48;;;;;;;26.94;47.35;98890.41;4773713;30;20147;-64
2022/11/08 12:19:22;;;;;;;53.22;24.48;;;;;;;26.85;46.39;98894.25;4782997;30;20055;-62
2022/11/08 12:22:47;;;;;;;46.92;24.77;;;;;;;26.63;48.79;98901.41;4764020;30;20059;-62
2022/11/08 12:25:53;;;;;;;51.95;25.23;;;;;;;26.65;48.44;98901.09;4759369;30;20088;-62
2022/11/08 12:28:52;;;;;;;52.03;24.20;;;;;;;26.70;46.42;98907.28;4764731;30;20475;-62
2022/11/08 12:31:57;;;;;;;52.58;25.65;;;;;;;26.75;46.56;98900.81;4777702;30;20055;-63
2022/11/08 12:34:51;;;;;;;41.75;24.30;;;;;;;26.68;44.73;98908.75;4780720;30;20055;-64
2022/11/08 12:37:58;;;;;;;53.08;26.67;;;;;;;26.61;45.99;98914.69;4778489;30;20074;-63
2022/11/08 12:40:47;;;;;;;50.80;26.40;;;;;;;26.77;45.65;98912.34;4779225;30;20051;-62
2022/11/08 12:43:52;;;;;;;54.25;27.30;;;;;;;26.84;44.68;98920.16;4778232;30;20120;-62
2022/11/08 12:47:08;;;;;;;56.00;27.60;;;;;;;26.67;45.05;98918.91;4779113;30;20063;-63
2022/11/08 12:50:15;;;;;;;58.00;28.95;;;;;;;26.78;44.44;98922.22;4778995;30;20054;-64
2022/11/08 12:53:10;;;;;;;52.53;28.00;;;;;;;26.75;45.16;98926.44;4780693;29;20528;-63
2022/11/08 12:55:56;;;;;;;54.67;27.10;;;;;;;26.74;46.28;98930.28;4780772;30;20059;-62
2022/11/08 12:58:55;;;;;;;59.05;29.17;;;;;;;26.69;46.23;98926.88;4780629;30;20148;-63
2022/11/08 13:01:39;;;;;;;54.90;27.55;;;;;;;26.57;46.36;98938.44;4778636;30;20059;-63
2022/11/08 13:04:44;;;;;;;54.90;27.38;;;;;;;26.58;47.79;98942.81;4780003;30;20063;-63
2022/11/08 13:08:21;;;;;;;58.10;28.60;;;;;;;26.54;47.26;98952.81;4780488;30;20110;-63
2022/11/08 13:11:05;;;;;;;59.50;28.13;;;;;;;26.57;46.02;98949.44;4782318;30;20083;-62
2022/11/08 13:13:55;;;;;;;59.75;28.60;;;;;;;26.43;46.70;98957.78;4771116;30;20051;-64
2022/11/08 13:16:44;;;;;;;65.78;29.95;;;;;;;26.35;45.57;98962.09;4783120;30;20480;-61
2022/11/08 13:19:55;;;;;;;64.50;29.10;;;;;;;26.38;46.93;98966.94;4779109;30;20130;-61
2022/11/08 13:22:46;;;;;;;63.90;28.58;;;;;;;26.21;48.48;98964.06;4780366;30;20066;-62
2022/11/08 13:25:42;;;;;;;67.07;29.50;;;;;;;26.20;47.68;98965.22;4781336;30;20059;-62
2022/11/08 13:28:39;;;;;;;60.40;29.58;;;;;;;26.32;47.56;98962.69;4782891;30;20051;-63